createdAt,value
2023-04-19T00:00:43.705Z,48.95
2023-04-19T00:02:49.589Z,49.19
2023-04-19T00:04:53.529Z,49.25
2023-04-19T00:06:57.042Z,49.12
2023-04-19T00:08:59.757Z,49.30
2023-04-19T00:11:03.740Z,49.18
2023-04-19T00:13:06.493Z,48.97
2023-04-19T00:15:09.332Z,49.22
2023-04-19T00:17:12.376Z,49.09
2023-04-19T00:19:15.000Z,49.36
2023-04-19T00:21:17.744Z,49.54
2023-04-19T00:23:20.672Z,49.15
2023-04-19T00:25:23.242Z,48.72
2023-04-19T00:27:25.942Z,49.09
2023-04-19T00:29:28.618Z,48.83
2023-04-19T00:31:31.377Z,48.71
2023-04-19T00:33:34.148Z,48.85
2023-04-19T00:35:36.781Z,48.66
2023-04-19T00:37:39.420Z,48.75
2023-04-19T00:39:42.078Z,48.73
2023-04-19T00:41:44.673Z,48.86
2023-04-19T00:43:47.328Z,48.71
2023-04-19T00:45:50.175Z,48.63
2023-04-19T00:47:54.078Z,48.34
2023-04-19T00:49:57.032Z,48.37
2023-04-19T00:51:59.696Z,48.49
2023-04-19T00:54:05.710Z,48.39
2023-04-19T00:56:09.719Z,48.68
2023-04-19T00:58:12.373Z,49.04
2023-04-19T01:00:15.302Z,48.54
2023-04-19T01:02:18.522Z,48.95
2023-04-19T01:04:23.230Z,48.79
2023-04-19T01:06:28.002Z,48.75
2023-04-19T01:08:30.966Z,48.23
2023-04-19T01:10:33.597Z,47.94
2023-04-19T01:12:36.334Z,47.94
2023-04-19T01:14:40.571Z,48.07
2023-04-19T01:16:43.427Z,48.21
2023-04-19T01:18:46.066Z,48.09
2023-04-19T01:20:48.711Z,48.53
2023-04-19T01:22:51.402Z,48.35
2023-04-19T01:24:54.282Z,48.42
2023-04-19T01:26:56.817Z,48.30
2023-04-19T01:28:59.430Z,48.27
2023-04-19T01:31:02.114Z,48.15
2023-04-19T01:33:04.784Z,48.25
2023-04-19T01:35:07.728Z,48.37
2023-04-19T01:37:10.387Z,48.37
2023-04-19T01:39:13.050Z,48.18
2023-04-19T01:41:16.045Z,48.25
2023-04-19T01:43:19.153Z,48.53
2023-04-19T01:45:21.882Z,48.29
2023-04-19T01:47:25.209Z,48.08
2023-04-19T01:49:27.836Z,47.93
2023-04-19T01:51:30.722Z,48.06
2023-04-19T01:53:33.375Z,47.77
2023-04-19T01:55:35.939Z,47.82
2023-04-19T01:57:38.516Z,48.17
2023-04-19T01:59:41.137Z,48.24
2023-04-19T02:01:43.909Z,48.06
2023-04-19T02:03:46.841Z,48.00
2023-04-19T02:05:49.729Z,47.90
2023-04-19T02:07:52.278Z,47.89
2023-04-19T02:09:55.625Z,47.79
2023-04-19T02:11:58.501Z,47.81
2023-04-19T02:14:01.202Z,47.70
2023-04-19T02:16:06.152Z,47.77
2023-04-19T02:18:08.732Z,47.57
2023-04-19T02:20:11.512Z,47.71
2023-04-19T02:22:14.204Z,48.03
2023-04-19T02:24:17.250Z,47.68
2023-04-19T02:26:20.686Z,47.42
2023-04-19T02:28:23.411Z,47.34
2023-04-19T02:30:26.139Z,47.39
2023-04-19T02:32:28.818Z,47.45
2023-04-19T02:34:31.533Z,47.63
2023-04-19T02:36:34.127Z,47.60
2023-04-19T02:38:36.739Z,47.62
2023-04-19T02:40:39.415Z,47.33
2023-04-19T02:42:41.982Z,47.37
2023-04-19T02:44:44.579Z,47.49
2023-04-19T02:46:50.851Z,47.46
2023-04-19T02:48:53.495Z,47.41
2023-04-19T02:50:56.111Z,47.37
2023-04-19T02:52:58.945Z,47.25
2023-04-19T02:55:01.570Z,46.91
2023-04-19T02:57:05.798Z,47.08
2023-04-19T02:59:08.396Z,46.87
2023-04-19T03:01:11.258Z,47.16
2023-04-19T03:03:13.990Z,46.90
2023-04-19T03:05:16.664Z,46.62
2023-04-19T03:07:19.371Z,46.75
2023-04-19T03:09:21.922Z,46.74
2023-04-19T03:11:25.138Z,46.56
2023-04-19T03:13:27.824Z,46.63
2023-04-19T03:15:30.427Z,46.82
2023-04-19T03:17:33.130Z,46.90
2023-04-19T03:19:35.797Z,46.71
2023-04-19T03:21:38.374Z,46.74
2023-04-19T03:23:41.027Z,47.20
2023-04-19T03:25:43.644Z,46.77
2023-04-19T03:27:48.177Z,46.71
2023-04-19T03:29:50.865Z,46.11
2023-04-19T03:31:53.551Z,46.53
2023-04-19T03:33:56.125Z,46.20
2023-04-19T03:35:58.905Z,46.17
2023-04-19T03:38:01.503Z,45.79
2023-04-19T03:40:04.618Z,46.03
2023-04-19T03:42:08.004Z,45.59
2023-04-19T03:44:10.561Z,45.76
2023-04-19T03:46:13.353Z,45.71
2023-04-19T03:48:16.011Z,45.83
2023-04-19T03:50:18.727Z,45.52
2023-04-19T03:52:21.462Z,45.14
2023-04-19T03:54:24.160Z,45.10
2023-04-19T03:56:26.787Z,44.61
2023-04-19T03:58:29.354Z,44.38
2023-04-19T04:00:32.131Z,44.21
2023-04-19T04:02:38.453Z,43.48
2023-04-19T04:04:41.482Z,43.95
2023-04-19T04:06:44.476Z,43.83
2023-04-19T04:08:47.038Z,43.85
2023-04-19T04:10:49.660Z,42.88
2023-04-19T04:12:52.365Z,42.67
2023-04-19T04:14:55.011Z,42.32
2023-04-19T04:16:57.594Z,42.40
2023-04-19T04:19:00.341Z,42.72
2023-04-19T04:21:02.967Z,41.94
2023-04-19T04:23:05.483Z,41.69
2023-04-19T04:25:08.449Z,41.39
2023-04-19T04:27:11.441Z,41.02
2023-04-19T04:29:14.431Z,40.39
2023-04-19T04:31:18.429Z,40.89
2023-04-19T04:33:21.105Z,40.59
2023-04-19T04:35:23.890Z,40.85
2023-04-19T04:37:26.454Z,40.45
2023-04-19T04:39:29.879Z,40.56
2023-04-19T04:41:32.572Z,39.86
2023-04-19T04:43:35.208Z,39.97
2023-04-19T04:45:38.033Z,40.34
2023-04-19T04:47:40.942Z,39.56
2023-04-19T04:49:43.642Z,39.89
2023-04-19T04:51:46.281Z,39.55
2023-04-19T04:53:48.842Z,39.45
2023-04-19T04:55:52.979Z,39.16
2023-04-19T04:57:55.639Z,38.75
2023-04-19T04:59:58.281Z,39.05
2023-04-19T05:02:00.912Z,38.70
2023-04-19T05:04:03.654Z,39.10
2023-04-19T05:06:06.750Z,38.89
2023-04-19T05:08:09.268Z,38.43
2023-04-19T05:10:11.825Z,38.30
2023-04-19T05:12:14.663Z,39.13
2023-04-19T05:14:17.487Z,38.81
2023-04-19T05:16:21.278Z,38.70
2023-04-19T05:18:24.411Z,39.05
2023-04-19T05:20:27.038Z,39.07
2023-04-19T05:22:29.639Z,39.04
2023-04-19T05:24:32.184Z,39.32
2023-04-19T05:26:34.848Z,39.32
2023-04-19T05:28:37.372Z,38.85
2023-04-19T05:30:40.183Z,38.77
2023-04-19T05:32:42.846Z,38.82
2023-04-19T05:34:45.399Z,38.85
2023-04-19T05:36:47.954Z,38.85
2023-04-19T05:38:50.716Z,38.49
2023-04-19T05:40:53.283Z,38.43
2023-04-19T05:42:55.919Z,38.15
2023-04-19T05:44:58.474Z,37.96
2023-04-19T05:47:01.400Z,37.85
2023-04-19T05:49:03.968Z,37.99
2023-04-19T05:51:06.923Z,37.26
2023-04-19T05:53:09.602Z,37.24
2023-04-19T05:55:12.226Z,37.29
2023-04-19T05:57:14.933Z,37.71
2023-04-19T05:59:17.565Z,37.24
2023-04-19T06:01:20.266Z,37.28
2023-04-19T06:03:23.063Z,37.29
2023-04-19T06:05:26.023Z,37.63
2023-04-19T06:07:32.873Z,36.66
2023-04-19T06:09:38.370Z,36.79
2023-04-19T06:11:50.120Z,37.02
2023-04-19T06:13:53.762Z,36.82
2023-04-19T06:15:56.711Z,36.50
2023-04-19T06:18:00.098Z,36.58
2023-04-19T06:20:06.462Z,36.51
2023-04-19T06:22:09.573Z,36.29
2023-04-19T06:24:12.359Z,36.60
2023-04-19T06:26:14.967Z,36.67
2023-04-19T06:28:17.674Z,36.71
2023-04-19T06:30:20.514Z,36.69
2023-04-19T06:32:23.369Z,36.53
2023-04-19T06:34:26.362Z,36.22
2023-04-19T06:36:29.594Z,35.50
2023-04-19T06:38:32.845Z,36.16
2023-04-19T06:40:35.650Z,36.28
2023-04-19T06:42:38.485Z,36.17
2023-04-19T06:44:41.209Z,35.51
2023-04-19T06:46:44.229Z,35.26
2023-04-19T06:48:47.616Z,35.26
2023-04-19T06:50:50.865Z,35.10
2023-04-19T06:52:53.846Z,35.17
2023-04-19T06:54:56.658Z,34.98
2023-04-19T06:56:59.254Z,34.99
2023-04-19T06:59:01.935Z,34.68
2023-04-19T07:01:05.396Z,34.04
2023-04-19T07:03:08.156Z,34.59
2023-04-19T07:05:12.980Z,34.52
2023-04-19T07:07:15.811Z,34.97
2023-04-19T07:09:18.683Z,34.72
2023-04-19T07:11:22.521Z,34.43
2023-04-19T07:13:25.677Z,34.45
2023-04-19T07:15:28.858Z,33.92
2023-04-19T07:17:32.245Z,34.75
2023-04-19T07:19:36.518Z,34.27
2023-04-19T07:21:40.256Z,34.21
2023-04-19T07:23:43.450Z,33.89
2023-04-19T07:25:47.088Z,33.68
2023-04-19T07:27:50.301Z,33.83
2023-04-19T07:29:54.429Z,33.91
2023-04-19T07:31:57.141Z,33.84
2023-04-19T07:34:00.064Z,33.26
2023-04-19T07:36:02.861Z,32.83
2023-04-19T07:38:05.499Z,33.15
2023-04-19T07:40:09.144Z,32.38
2023-04-19T07:42:12.071Z,32.43
2023-04-19T07:44:14.976Z,32.48
2023-04-19T07:46:18.785Z,32.77
2023-04-19T07:48:21.711Z,32.63
2023-04-19T07:50:27.152Z,32.76
2023-04-19T07:52:29.925Z,32.51
2023-04-19T07:54:32.626Z,31.91
2023-04-19T07:56:35.297Z,31.49
2023-04-19T07:58:42.270Z,31.42
2023-04-19T08:00:46.124Z,31.50
2023-04-19T08:02:49.916Z,31.29
2023-04-19T08:04:53.650Z,31.39
2023-04-19T08:06:56.777Z,31.55
2023-04-19T08:08:59.766Z,31.25
2023-04-19T08:11:02.718Z,31.56
2023-04-19T08:13:06.746Z,30.97
2023-04-19T08:15:32.854Z,31.53
2023-04-19T08:19:38.087Z,30.69
2023-04-19T08:21:41.778Z,30.61
2023-04-19T08:23:48.348Z,30.46
2023-04-19T08:25:52.237Z,30.64
2023-04-19T08:27:55.721Z,31.30
2023-04-19T08:29:58.869Z,30.83
2023-04-19T08:32:02.852Z,30.81
2023-04-19T08:34:05.674Z,30.64
2023-04-19T08:36:08.988Z,29.55
2023-04-19T08:38:12.303Z,29.17
2023-04-19T08:40:17.518Z,28.92
2023-04-19T08:42:33.233Z,28.95
2023-04-19T08:44:49.240Z,28.80
2023-04-19T08:47:02.573Z,28.43
2023-04-19T08:49:06.293Z,28.45
2023-04-19T08:51:10.182Z,28.30
2023-04-19T08:55:19.129Z,27.99
2023-04-19T08:57:22.970Z,27.74
2023-04-19T08:59:25.776Z,27.77
2023-04-19T09:01:34.759Z,28.19
2023-04-19T09:04:00.387Z,27.52
2023-04-19T09:06:08.545Z,27.21
2023-04-19T09:08:30.250Z,27.47
2023-04-19T09:10:33.395Z,27.60
2023-04-19T09:12:37.739Z,27.17
2023-04-19T09:14:59.775Z,27.17
2023-04-19T09:17:17.034Z,27.18
2023-04-19T09:19:24.933Z,26.96
2023-04-19T09:21:30.834Z,26.49
2023-04-19T09:23:33.479Z,26.81
2023-04-19T09:25:52.891Z,26.27
2023-04-19T09:28:15.157Z,25.94
2023-04-19T09:30:31.422Z,26.39
2023-04-19T09:32:48.001Z,26.09
2023-04-19T09:34:55.636Z,25.70
2023-04-19T09:37:11.046Z,25.75
2023-04-19T09:39:33.019Z,25.66
2023-04-19T09:41:39.025Z,25.84
2023-04-19T09:45:48.010Z,26.15
2023-04-19T09:48:05.966Z,26.04
2023-04-19T09:52:16.104Z,25.33
2023-04-19T09:54:21.153Z,25.94
2023-04-19T09:56:23.778Z,25.42
2023-04-19T09:58:34.343Z,26.12
2023-04-19T10:00:50.023Z,25.91
2023-04-19T10:02:58.723Z,25.61
2023-04-19T10:05:19.658Z,25.40
2023-04-19T10:07:30.498Z,25.15
2023-04-19T10:09:42.636Z,25.54
2023-04-19T10:12:02.097Z,25.35
2023-04-19T10:14:15.451Z,25.30
2023-04-19T10:16:20.172Z,25.04
2023-04-19T10:18:23.811Z,25.71
2023-04-19T10:20:53.126Z,25.47
2023-04-19T10:22:56.394Z,25.51
2023-04-19T10:25:17.120Z,26.19
2023-04-19T10:27:25.860Z,25.90
2023-04-19T10:30:10.908Z,26.35
2023-04-19T10:32:13.954Z,27.05
2023-04-19T10:34:42.675Z,26.68
2023-04-19T10:36:45.295Z,27.08
2023-04-19T10:38:49.885Z,27.36
2023-04-19T10:40:52.966Z,26.70
2023-04-19T10:43:11.089Z,25.94
2023-04-19T10:45:33.596Z,26.08
2023-04-19T10:47:44.628Z,26.19
2023-04-19T10:49:47.296Z,26.36
2023-04-19T10:51:54.982Z,26.34
2023-04-19T10:54:08.049Z,27.78
2023-04-19T10:56:11.162Z,27.28
2023-04-19T10:58:13.758Z,26.73
2023-04-19T11:00:22.348Z,26.50
2023-04-19T11:02:25.307Z,25.46
2023-04-19T11:04:31.310Z,24.57
2023-04-19T11:06:54.361Z,24.59
2023-04-19T11:08:57.993Z,24.24
2023-04-19T11:11:00.621Z,24.57
2023-04-19T11:13:03.266Z,25.67
2023-04-19T11:15:06.948Z,24.79
2023-04-19T11:17:18.981Z,23.46
2023-04-19T11:19:21.720Z,23.76
2023-04-19T11:21:24.618Z,23.72
2023-04-19T11:23:27.736Z,24.12
2023-04-19T11:25:31.839Z,23.11
2023-04-19T11:27:34.999Z,22.93
2023-04-19T11:29:37.584Z,22.77
2023-04-19T11:31:40.472Z,21.83
2023-04-19T11:33:44.280Z,21.34
2023-04-19T11:35:46.857Z,21.42
2023-04-19T11:37:49.709Z,20.82
2023-04-19T11:39:52.249Z,20.53
2023-04-19T11:41:54.848Z,21.34
2023-04-19T11:43:57.427Z,21.73
2023-04-19T11:46:10.699Z,21.27
2023-04-19T11:48:16.468Z,21.51
2023-04-19T11:50:31.395Z,22.20
2023-04-19T11:52:35.789Z,23.74
2023-04-19T11:54:40.188Z,24.50
2023-04-19T11:57:09.456Z,24.99
2023-04-19T11:59:12.094Z,25.32
2023-04-19T12:01:16.723Z,25.74
2023-04-19T12:03:27.119Z,26.04
2023-04-19T12:05:30.652Z,25.04
2023-04-19T12:07:33.475Z,25.15
2023-04-19T12:09:37.142Z,25.37
2023-04-19T12:11:50.346Z,25.69
2023-04-19T12:14:13.318Z,25.11
2023-04-19T12:16:28.278Z,24.93
2023-04-19T12:18:49.093Z,24.61
2023-04-19T12:20:53.574Z,24.73
2023-04-19T12:22:56.406Z,24.63
2023-04-19T12:24:59.381Z,24.60
2023-04-19T12:27:03.035Z,24.84
2023-04-19T12:29:06.468Z,25.02
2023-04-19T12:31:09.380Z,24.92
2023-04-19T12:33:12.482Z,24.37
2023-04-19T12:35:15.095Z,24.53
2023-04-19T12:37:17.666Z,24.48
2023-04-19T12:39:20.326Z,23.91
2023-04-19T12:41:22.848Z,23.58
2023-04-19T12:43:25.585Z,23.28
2023-04-19T12:45:28.221Z,23.60
2023-04-19T12:47:30.899Z,23.09
2023-04-19T12:49:34.316Z,23.27
2023-04-19T12:51:36.861Z,23.12
2023-04-19T12:53:42.031Z,22.91
2023-04-19T12:55:47.642Z,22.85
2023-04-19T12:57:50.243Z,23.02
2023-04-19T12:59:53.013Z,22.43
2023-04-19T13:01:56.760Z,22.05
2023-04-19T13:03:59.949Z,22.26
2023-04-19T13:06:03.770Z,21.83
2023-04-19T13:08:06.789Z,22.10
2023-04-19T13:10:09.781Z,21.47
2023-04-19T13:12:12.651Z,21.77
2023-04-19T13:14:15.341Z,21.73
2023-04-19T13:16:18.422Z,21.76
2023-04-19T13:18:22.456Z,22.51
2023-04-19T13:20:25.069Z,21.66
2023-04-19T13:22:27.672Z,22.20
2023-04-19T13:24:30.519Z,22.45
2023-04-19T13:26:34.510Z,22.96
2023-04-19T13:28:37.297Z,23.33
2023-04-19T13:30:39.968Z,23.40
2023-04-19T13:32:42.574Z,23.37
2023-04-19T13:34:45.162Z,22.98
2023-04-19T13:36:47.859Z,23.43
2023-04-19T13:38:50.403Z,23.32
2023-04-19T13:40:53.104Z,22.12
2023-04-19T13:42:56.958Z,22.54
2023-04-19T13:44:59.506Z,23.15
2023-04-19T13:47:02.245Z,23.47
2023-04-19T13:49:04.927Z,22.41
2023-04-19T13:51:08.539Z,22.51
2023-04-19T13:53:11.164Z,22.52
2023-04-19T13:55:13.804Z,22.41
2023-04-19T13:57:16.383Z,22.39
2023-04-19T13:59:19.349Z,22.45
2023-04-19T14:01:22.220Z,22.19
2023-04-19T14:03:25.323Z,22.06
2023-04-19T14:05:27.975Z,21.76
2023-04-19T14:07:30.861Z,22.43
2023-04-19T14:09:33.438Z,22.25
2023-04-19T14:11:37.908Z,22.89
2023-04-19T14:13:41.208Z,23.51
2023-04-19T14:15:43.776Z,23.90
2023-04-19T14:17:47.301Z,23.72
2023-04-19T14:19:50.081Z,23.89
2023-04-19T14:21:52.671Z,23.75
2023-04-19T14:23:55.669Z,23.66
2023-04-19T14:25:58.346Z,24.24
2023-04-19T14:28:00.938Z,24.45
2023-04-19T14:30:03.865Z,24.58
2023-04-19T14:32:24.043Z,24.83
2023-04-19T14:34:28.552Z,24.72
2023-04-19T14:36:31.479Z,25.05
2023-04-19T14:38:35.351Z,25.78
2023-04-19T14:40:37.926Z,26.00
2023-04-19T14:42:40.709Z,26.09
2023-04-19T14:44:43.980Z,26.21
2023-04-19T14:46:46.639Z,26.93
2023-04-19T14:48:49.177Z,27.15
2023-04-19T14:50:52.005Z,28.06
2023-04-19T14:52:54.879Z,28.00
2023-04-19T14:54:58.122Z,28.48
2023-04-19T14:57:01.621Z,28.56
2023-04-19T14:59:08.085Z,29.01
2023-04-19T15:01:14.424Z,29.17
2023-04-19T15:03:17.802Z,29.99
2023-04-19T15:05:23.468Z,29.93
2023-04-19T15:07:26.540Z,30.18
2023-04-19T15:09:29.330Z,30.86
2023-04-19T15:11:32.004Z,30.83
2023-04-19T15:13:35.653Z,31.06
2023-04-19T15:15:38.362Z,30.80
2023-04-19T15:17:41.360Z,31.11
2023-04-19T15:19:47.201Z,31.42
2023-04-19T15:21:49.967Z,31.47
2023-04-19T15:23:52.702Z,31.53
2023-04-19T15:25:56.376Z,32.36
2023-04-19T15:27:58.973Z,32.07
2023-04-19T15:30:01.635Z,32.09
2023-04-19T15:32:08.318Z,32.14
2023-04-19T15:34:10.923Z,32.90
2023-04-19T15:36:13.680Z,32.90
2023-04-19T15:38:16.297Z,33.21
2023-04-19T15:40:19.070Z,33.04
2023-04-19T15:42:22.211Z,33.08
2023-04-19T15:44:24.955Z,33.17
2023-04-19T15:46:27.510Z,33.15
2023-04-19T15:48:30.223Z,34.60
2023-04-19T15:50:36.230Z,35.90
2023-04-19T15:52:38.808Z,36.57
2023-04-19T15:54:41.355Z,36.67
2023-04-19T15:56:44.025Z,37.21
2023-04-19T15:58:46.708Z,37.93
2023-04-19T16:00:49.364Z,38.21
2023-04-19T16:02:52.300Z,38.88
2023-04-19T16:04:55.163Z,39.69
2023-04-19T16:06:57.988Z,40.49
2023-04-19T16:09:00.848Z,40.71
2023-04-19T16:11:06.155Z,41.72
2023-04-19T16:13:08.951Z,42.30
2023-04-19T16:15:12.071Z,42.68
2023-04-19T16:17:14.622Z,43.13
2023-04-19T16:19:17.406Z,44.07
2023-04-19T16:21:20.207Z,44.15
2023-04-19T16:23:24.342Z,44.66
2023-04-19T16:25:27.040Z,45.06
2023-04-19T16:27:29.661Z,45.23
2023-04-19T16:29:32.233Z,45.85
2023-04-19T16:31:35.195Z,46.05
2023-04-19T16:33:37.811Z,46.18
2023-04-19T16:35:40.405Z,46.58
2023-04-19T16:37:43.146Z,46.73
2023-04-19T16:39:46.311Z,47.37
2023-04-19T16:41:48.984Z,47.22
2023-04-19T16:43:51.501Z,47.64
2023-04-19T16:45:54.100Z,48.21
2023-04-19T16:47:56.773Z,48.14
2023-04-19T16:50:00.588Z,48.50
2023-04-19T16:52:03.280Z,48.46
2023-04-19T16:54:05.883Z,48.80
2023-04-19T16:56:08.490Z,48.63
2023-04-19T16:58:11.256Z,48.76
2023-04-19T17:00:14.271Z,48.92
2023-04-19T17:02:17.308Z,49.43
2023-04-19T17:04:20.412Z,49.62
2023-04-19T17:06:23.107Z,49.24
2023-04-19T17:08:26.648Z,49.65
2023-04-19T17:10:29.330Z,49.60
2023-04-19T17:12:32.155Z,49.56
2023-04-19T17:14:35.555Z,49.51
2023-04-19T17:16:38.446Z,49.85
2023-04-19T17:18:41.105Z,50.05
2023-04-19T17:20:44.020Z,50.31
2023-04-19T17:22:46.753Z,50.32
2023-04-19T17:24:49.788Z,49.99
2023-04-19T17:26:52.399Z,50.17
2023-04-19T17:28:55.094Z,50.16
2023-04-19T17:30:57.694Z,50.26
2023-04-19T17:33:00.407Z,50.35
2023-04-19T17:35:04.596Z,50.40
2023-04-19T17:37:07.536Z,50.48
2023-04-19T17:39:10.172Z,50.63
2023-04-19T17:41:16.483Z,50.53
2023-04-19T17:43:21.025Z,50.52
2023-04-19T17:45:25.232Z,50.66
2023-04-19T17:47:27.941Z,50.60
2023-04-19T17:49:30.640Z,50.45
2023-04-19T17:51:33.376Z,50.51
2023-04-19T17:53:36.040Z,50.38
2023-04-19T17:55:38.627Z,50.66
2023-04-19T17:57:41.412Z,50.70
2023-04-19T17:59:44.397Z,50.54
2023-04-19T18:01:47.147Z,50.92
2023-04-19T18:03:50.873Z,51.13
2023-04-19T18:05:54.898Z,51.06
2023-04-19T18:07:57.950Z,51.35
2023-04-19T18:10:00.645Z,51.38
2023-04-19T18:12:07.784Z,51.92
2023-04-19T18:14:20.584Z,52.18
2023-04-19T18:16:26.301Z,52.20
2023-04-19T18:18:29.149Z,52.19
2023-04-19T18:20:31.777Z,52.24
2023-04-19T18:22:34.492Z,52.65
2023-04-19T18:24:38.348Z,52.93
2023-04-19T18:26:43.285Z,52.99
2023-04-19T18:28:46.236Z,53.08
2023-04-19T18:30:48.882Z,53.31
2023-04-19T18:32:51.745Z,53.58
2023-04-19T18:34:54.768Z,53.77
2023-04-19T18:37:02.071Z,53.44
2023-04-19T18:39:05.004Z,53.72
2023-04-19T18:41:07.725Z,53.60
2023-04-19T18:43:10.702Z,53.95
2023-04-19T18:45:13.513Z,53.50
2023-04-19T18:47:16.354Z,53.42
2023-04-19T18:49:19.395Z,53.61
2023-04-19T18:51:22.188Z,53.57
2023-04-19T18:53:29.517Z,53.96
2023-04-19T18:55:32.279Z,54.15
2023-04-19T18:57:35.267Z,53.78
2023-04-19T18:59:38.522Z,54.08
2023-04-19T19:01:42.030Z,53.86
2023-04-19T19:05:54.723Z,54.05
2023-04-19T19:07:57.935Z,54.38
2023-04-19T19:10:03.668Z,54.01
2023-04-19T19:12:13.957Z,54.11
2023-04-19T19:14:18.301Z,54.27
2023-04-19T19:16:20.989Z,54.33
2023-04-19T19:18:23.818Z,54.57
2023-04-19T19:20:26.742Z,54.69
2023-04-19T19:22:29.437Z,54.55
2023-04-19T19:24:32.201Z,55.36
2023-04-19T19:26:34.949Z,55.47
2023-04-19T19:28:37.607Z,55.56
2023-04-19T19:30:42.958Z,55.79
2023-04-19T19:32:45.814Z,55.66
2023-04-19T19:36:55.453Z,55.84
2023-04-19T19:38:58.033Z,55.99
2023-04-19T19:41:47.218Z,56.13
2023-04-19T19:43:23.363Z,56.33
2023-04-19T19:45:31.978Z,56.57
2023-04-19T19:47:35.735Z,56.09
2023-04-19T19:51:57.501Z,56.89
2023-04-19T19:54:08.780Z,57.00
2023-04-19T19:56:19.061Z,57.47
2023-04-19T19:58:46.255Z,58.11
2023-04-19T20:00:50.392Z,58.07
2023-04-19T20:02:56.662Z,58.45
2023-04-19T20:04:59.878Z,58.60
2023-04-19T20:09:08.225Z,59.30
2023-04-19T20:11:11.135Z,59.01
2023-04-19T20:13:13.682Z,58.94
2023-04-19T20:15:16.444Z,59.10
2023-04-19T20:17:19.047Z,58.95
2023-04-19T20:19:21.742Z,59.13
2023-04-19T20:21:24.364Z,59.21
2023-04-19T20:23:27.209Z,59.35
2023-04-19T20:25:32.588Z,59.56
2023-04-19T20:27:35.286Z,58.96
2023-04-19T20:29:38.350Z,59.58
2023-04-19T20:31:42.613Z,59.60
2023-04-19T20:33:47.975Z,59.49
2023-04-19T20:35:50.687Z,59.64
2023-04-19T20:37:54.703Z,60.07
2023-04-19T20:39:58.702Z,59.98
2023-04-19T20:42:01.586Z,60.15
2023-04-19T20:44:05.170Z,60.05
2023-04-19T20:46:08.552Z,60.12
2023-04-19T20:48:11.253Z,60.21
2023-04-19T20:50:13.903Z,60.16
2023-04-19T20:52:16.479Z,60.43
2023-04-19T20:54:20.092Z,60.31
2023-04-19T20:56:23.225Z,60.54
2023-04-19T20:58:25.973Z,61.00
2023-04-19T21:00:28.862Z,61.22
2023-04-19T21:02:31.800Z,61.27
2023-04-19T21:04:34.984Z,61.63
2023-04-19T21:06:37.712Z,62.00
2023-04-19T21:08:40.377Z,62.23
2023-04-19T21:10:43.067Z,62.73
2023-04-19T21:12:45.919Z,63.19
2023-04-19T21:14:50.040Z,63.08
2023-04-19T21:16:52.628Z,63.49
2023-04-19T21:18:55.368Z,63.57
2023-04-19T21:20:58.582Z,63.95
2023-04-19T21:23:02.144Z,63.97
2023-04-19T21:25:05.537Z,64.23
2023-04-19T21:27:08.115Z,64.27
2023-04-19T21:29:11.701Z,64.81
2023-04-19T21:31:14.351Z,64.89
2023-04-19T21:33:18.276Z,65.52
2023-04-19T21:35:21.053Z,65.48
2023-04-19T21:37:23.747Z,65.69
2023-04-19T21:39:26.380Z,65.79
2023-04-19T21:41:29.065Z,66.10
2023-04-19T21:43:31.771Z,66.08
2023-04-19T21:45:34.467Z,66.82
2023-04-19T21:47:37.264Z,66.87
2023-04-19T21:49:41.097Z,66.95
2023-04-19T21:51:43.733Z,67.14
2023-04-19T21:53:46.335Z,67.31
2023-04-19T21:55:52.878Z,67.62
2023-04-19T21:57:55.531Z,67.58
2023-04-19T21:59:58.398Z,67.87
2023-04-19T22:02:01.257Z,67.69
2023-04-19T22:04:04.762Z,68.29
2023-04-19T22:06:08.641Z,67.86
2023-04-19T22:08:12.170Z,67.85
2023-04-19T22:10:14.827Z,68.17
2023-04-19T22:12:17.470Z,68.31
2023-04-19T22:14:20.213Z,68.57
2023-04-19T22:16:22.871Z,68.03
2023-04-19T22:18:25.568Z,68.14
2023-04-19T22:20:28.180Z,68.13
2023-04-19T22:22:30.850Z,67.88
2023-04-19T22:26:36.422Z,68.12
2023-04-19T22:28:39.120Z,68.08
2023-04-19T22:30:41.937Z,67.98
2023-04-19T22:32:44.695Z,68.23
2023-04-19T22:34:47.250Z,68.59
2023-04-19T22:36:49.995Z,68.39
2023-04-19T22:38:52.621Z,68.61
2023-04-19T22:40:55.208Z,68.52
2023-04-19T22:42:57.830Z,68.79
2023-04-19T22:45:00.463Z,68.88
2023-04-19T22:47:03.660Z,69.17
2023-04-19T22:49:06.450Z,68.96
2023-04-19T22:51:09.641Z,69.24
2023-04-19T22:53:13.238Z,69.44
2023-04-19T22:55:15.926Z,69.32
2023-04-19T22:57:21.447Z,69.29
2023-04-19T22:59:24.038Z,69.35
2023-04-19T23:01:26.786Z,69.34
2023-04-19T23:03:29.487Z,69.35
2023-04-19T23:05:33.681Z,69.50
2023-04-19T23:07:36.406Z,69.78
2023-04-19T23:09:39.492Z,69.82
2023-04-19T23:11:42.623Z,69.64
2023-04-19T23:13:47.531Z,70.03
2023-04-19T23:15:50.460Z,70.12
2023-04-19T23:17:53.107Z,70.40
2023-04-19T23:19:55.783Z,70.40
2023-04-19T23:21:58.402Z,70.57
2023-04-19T23:24:01.121Z,70.81
2023-04-19T23:26:03.873Z,70.87
2023-04-19T23:28:06.661Z,71.36
2023-04-19T23:30:09.624Z,71.44
2023-04-19T23:32:12.298Z,71.43
2023-04-19T23:34:15.509Z,71.89
2023-04-19T23:36:18.246Z,71.91
2023-04-19T23:38:21.046Z,71.99
2023-04-19T23:40:23.695Z,72.25
2023-04-19T23:42:26.318Z,71.97
2023-04-19T23:44:30.106Z,72.80
2023-04-19T23:46:32.825Z,72.57
2023-04-19T23:48:35.462Z,73.10
2023-04-19T23:50:38.011Z,73.58
2023-04-19T23:52:40.956Z,73.48
2023-04-19T23:54:43.643Z,73.69
2023-04-19T23:56:46.975Z,73.99
2023-04-19T23:58:49.597Z,74.31
